Portada
METAR-TAF:

METAR-TAF

Aeropuertos :

Aeropuerto Internacional de Nador

Nador, Marruecos

latitud: 34-59-20N, longitud: 003-01-42W, altitud: 175 m

Observación

El informe se hizo hace 1 hora y 5 minutos, a las 18:00 UTC
Viento 5 kt del noreste, variando entre norte y este-noreste
Temperatura 20°C
Humedad 78%
Presión 1020 hPa
Visibilidad 10 km o más
Escasas nubes a una altura de 2000 ft
Nubes dispersas a una altura de 2600 ft

METAR: GMMW 201800Z 05005KT 010V070 9999 FEW020 SCT026 20/16 Q1020

Hora: 20:05 (19:05 UTC)

Pronóstico

El informe se hizo hace 2 horas y 5 minutos, a las 17:00 UTC
Pronóstico válido del 20 a las 18 UTC al 21 a las 24 UTC
Viento 7 kt del noreste
Visibilidad 10 km o más
sin nubes por debajo de 1500 m y sin presencia de cumulonimbus.
Probabilidad 30%
del 20 a las 22 UTC al 21 a las 08 UTC
Visibilidad: 3000 m
neblina

TAF: GMMW 201700Z 2018/2124 05007KT CAVOK PROB30 2022/2108 3000 BR

Observaciones y pronósticos meteorológicos de más de 4000 aeropuertos (mensajes METAR y TAF).

Los puntos amarillos y rojos representan las estaciones disponibles.

Ponga el ratón en el punto deseado para ver el nombre de la estación.

Haga clic para ver las observaciones y los pronósticos meteorológicos.

Para cambiar el mapa : haga clic en los botones verdes con una cruz de color negro para hacer un zoom, en el botón verde con un guión para alejar o en las flechas verdes para mapas adyacentes.


METAR-TAF: